createdAt,value
2023-04-16T00:02:15.167Z,101582.28
2023-04-16T00:04:42.769Z,101573.31
2023-04-16T00:07:10.026Z,101584.19
2023-04-16T00:09:37.111Z,101587.19
2023-04-16T00:12:05.096Z,101584.66
2023-04-16T00:14:32.659Z,101586.88
2023-04-16T00:16:59.909Z,101583.16
2023-04-16T00:19:27.108Z,101589.81
2023-04-16T00:21:54.345Z,101590.06
2023-04-16T00:24:21.368Z,101588.00
2023-04-16T00:26:48.513Z,101601.75
2023-04-16T00:29:15.752Z,101605.38
2023-04-16T00:31:43.100Z,101569.91
2023-04-16T00:34:10.288Z,101582.91
2023-04-16T00:36:37.407Z,101590.03
2023-04-16T00:39:05.595Z,101577.72
2023-04-16T00:41:32.850Z,101576.34
2023-04-16T00:44:00.251Z,101575.72
2023-04-16T00:46:27.859Z,101572.19
2023-04-16T00:48:56.156Z,101573.22
2023-04-16T00:51:23.670Z,101573.97
2023-04-16T00:53:50.999Z,101590.06
2023-04-16T00:56:18.300Z,101592.44
2023-04-16T00:58:46.257Z,101600.03
2023-04-16T01:01:14.679Z,101586.63
2023-04-16T01:03:47.257Z,101584.31
2023-04-16T01:06:16.797Z,101583.34
2023-04-16T01:08:45.603Z,101588.19
2023-04-16T01:11:14.148Z,101579.47
2023-04-16T01:13:42.221Z,101575.41
2023-04-16T01:16:11.354Z,101583.06
2023-04-16T01:18:39.368Z,101584.75
2023-04-16T01:21:07.181Z,101593.25
2023-04-16T01:23:34.508Z,101589.41
2023-04-16T01:26:03.073Z,101591.94
2023-04-16T01:28:30.242Z,101583.50
2023-04-16T01:30:57.500Z,101596.34
2023-04-16T01:33:46.335Z,101599.13
2023-04-16T01:36:13.765Z,101584.09
2023-04-16T01:38:40.895Z,101586.34
2023-04-16T01:41:08.316Z,101588.31
2023-04-16T01:43:37.222Z,101603.31
2023-04-16T01:46:28.071Z,101587.53
2023-04-16T01:48:55.876Z,101597.88
2023-04-16T01:51:24.140Z,101582.69
2023-04-16T01:53:51.548Z,101591.91
2023-04-16T01:56:19.216Z,101592.69
2023-04-16T01:58:47.604Z,101598.19
2023-04-16T02:01:16.782Z,101598.19
2023-04-16T02:03:45.768Z,101599.28
2023-04-16T02:06:13.526Z,101596.00
2023-04-16T02:08:41.694Z,101591.22
2023-04-16T02:11:09.223Z,101599.97
2023-04-16T02:13:37.339Z,101593.44
2023-04-16T02:16:06.169Z,101602.28
2023-04-16T02:19:07.807Z,101578.34
2023-04-16T02:21:36.627Z,101589.53
2023-04-16T02:24:03.877Z,101601.53
2023-04-16T02:26:31.731Z,101606.50
2023-04-16T02:29:05.359Z,101601.59
2023-04-16T02:31:39.715Z,101597.81
2023-04-16T02:34:09.022Z,101607.00
2023-04-16T02:36:36.117Z,101615.22
2023-04-16T02:39:03.360Z,101614.19
2023-04-16T02:41:30.689Z,101622.38
2023-04-16T02:43:58.046Z,101605.94
2023-04-16T02:46:25.398Z,101633.09
2023-04-16T02:48:52.741Z,101637.72
2023-04-16T02:51:20.052Z,101622.25
2023-04-16T02:53:47.228Z,101614.75
2023-04-16T02:56:14.706Z,101634.03
2023-04-16T02:58:42.021Z,101638.31
2023-04-16T03:01:09.314Z,101637.22
2023-04-16T03:03:36.405Z,101637.47
2023-04-16T03:06:04.088Z,101655.97
2023-04-16T03:08:31.174Z,101638.44
2023-04-16T03:10:58.399Z,101638.34
2023-04-16T03:13:25.561Z,101645.13
2023-04-16T03:15:52.699Z,101657.41
2023-04-16T03:18:19.923Z,101645.97
2023-04-16T03:20:54.126Z,101657.06
2023-04-16T03:23:21.784Z,101644.84
2023-04-16T03:25:48.894Z,101639.34
2023-04-16T03:28:18.919Z,101647.63
2023-04-16T03:30:52.993Z,101659.38
2023-04-16T03:33:21.378Z,101649.66
2023-04-16T03:35:56.125Z,101634.94
2023-04-16T03:38:26.829Z,101650.84
2023-04-16T03:40:56.558Z,101654.47
2023-04-16T03:43:23.916Z,101657.56
2023-04-16T03:45:51.704Z,101645.53
2023-04-16T03:48:22.109Z,101663.53
2023-04-16T03:50:49.439Z,101672.38
2023-04-16T03:53:19.118Z,101667.06
2023-04-16T03:55:51.724Z,101663.28
2023-04-16T03:58:20.407Z,101679.34
2023-04-16T04:00:48.395Z,101670.78
2023-04-16T04:03:18.093Z,101658.47
2023-04-16T04:05:47.683Z,101666.81
2023-04-16T04:08:18.788Z,101676.44
2023-04-16T04:10:46.228Z,101688.47
2023-04-16T04:13:14.773Z,101673.13
2023-04-16T04:15:42.682Z,101672.97
2023-04-16T04:18:09.778Z,101680.69
2023-04-16T04:20:41.028Z,101682.44
2023-04-16T04:23:08.794Z,101684.50
2023-04-16T04:25:36.296Z,101686.50
2023-04-16T04:28:03.728Z,101690.72
2023-04-16T04:30:30.945Z,101680.16
2023-04-16T04:32:58.501Z,101692.25
2023-04-16T04:35:26.024Z,101695.69
2023-04-16T04:37:53.749Z,101679.59
2023-04-16T04:40:21.870Z,101679.59
2023-04-16T04:42:49.218Z,101678.00
2023-04-16T04:45:16.696Z,101685.28
2023-04-16T04:47:43.993Z,101679.13
2023-04-16T04:50:11.411Z,101686.63
2023-04-16T04:52:39.300Z,101695.00
2023-04-16T04:55:07.940Z,101694.34
2023-04-16T04:57:36.039Z,101686.78
2023-04-16T05:00:06.480Z,101683.84
2023-04-16T05:02:41.986Z,101677.47
2023-04-16T05:05:09.533Z,101690.75
2023-04-16T05:07:37.003Z,101700.66
2023-04-16T05:10:04.264Z,101689.53
2023-04-16T05:12:32.295Z,101703.56
2023-04-16T05:14:59.416Z,101706.84
2023-04-16T05:17:26.627Z,101695.19
2023-04-16T05:19:53.854Z,101693.81
2023-04-16T05:22:21.205Z,101694.88
2023-04-16T05:24:48.356Z,101692.91
2023-04-16T05:27:15.927Z,101692.59
2023-04-16T05:29:43.475Z,101698.47
2023-04-16T05:32:10.565Z,101701.94
2023-04-16T05:34:37.987Z,101697.25
2023-04-16T05:37:05.121Z,101707.78
2023-04-16T05:39:32.283Z,101708.09
2023-04-16T05:41:59.432Z,101715.41
2023-04-16T05:44:27.082Z,101717.50
2023-04-16T05:46:54.322Z,101725.00
2023-04-16T05:49:22.470Z,101727.00
2023-04-16T05:51:50.886Z,101717.75
2023-04-16T05:54:18.597Z,101736.94
2023-04-16T05:56:45.769Z,101730.34
2023-04-16T05:59:13.095Z,101710.91
2023-04-16T06:01:40.506Z,101720.22
2023-04-16T06:04:07.717Z,101721.06
2023-04-16T06:06:35.029Z,101714.63
2023-04-16T06:09:02.191Z,101721.03
2023-04-16T06:11:30.800Z,101741.72
2023-04-16T06:13:58.022Z,101704.09
2023-04-16T06:16:25.463Z,101714.41
2023-04-16T06:18:53.353Z,101714.41
2023-04-16T06:21:20.868Z,101718.91
2023-04-16T06:23:47.934Z,101725.88
2023-04-16T06:26:14.964Z,101709.09
2023-04-16T06:28:42.224Z,101728.41
2023-04-16T06:31:09.328Z,101734.47
2023-04-16T06:33:36.669Z,101737.84
2023-04-16T06:36:03.849Z,101715.25
2023-04-16T06:38:31.085Z,101707.44
2023-04-16T06:40:59.672Z,101734.78
2023-04-16T06:43:27.109Z,101734.22
2023-04-16T06:45:55.805Z,101722.78
2023-04-16T06:48:23.040Z,101722.25
2023-04-16T06:50:50.374Z,101725.31
2023-04-16T06:53:17.838Z,101726.75
2023-04-16T06:55:44.984Z,101715.28
2023-04-16T06:58:13.522Z,101725.88
2023-04-16T07:00:40.695Z,101729.81
2023-04-16T07:03:07.946Z,101712.47
2023-04-16T07:05:35.219Z,101701.31
2023-04-16T07:08:02.487Z,101723.94
2023-04-16T07:10:29.701Z,101714.16
2023-04-16T07:12:56.865Z,101703.25
2023-04-16T07:15:24.018Z,101725.91
2023-04-16T07:17:51.553Z,101727.31
2023-04-16T07:20:18.707Z,101677.28
2023-04-16T07:22:46.046Z,101696.28
2023-04-16T07:25:13.118Z,101724.25
2023-04-16T07:27:40.235Z,101695.72
2023-04-16T07:30:08.252Z,101700.19
2023-04-16T07:32:35.702Z,101678.09
2023-04-16T07:35:04.014Z,101684.72
2023-04-16T07:37:32.400Z,101690.91
2023-04-16T07:40:00.968Z,101680.50
2023-04-16T07:42:31.371Z,101679.06
2023-04-16T07:44:58.460Z,101658.34
2023-04-16T07:47:26.757Z,101695.19
2023-04-16T07:49:53.962Z,101685.53
2023-04-16T07:52:21.350Z,101671.88
2023-04-16T07:54:48.502Z,101670.75
2023-04-16T07:57:16.590Z,101670.50
2023-04-16T07:59:44.021Z,101678.88
2023-04-16T08:02:15.619Z,101661.28
2023-04-16T08:04:44.018Z,101670.50
2023-04-16T08:07:11.308Z,101666.78
2023-04-16T08:09:58.398Z,101671.88
2023-04-16T08:12:25.647Z,101645.72
2023-04-16T08:14:52.949Z,101664.75
2023-04-16T08:17:20.135Z,101638.94
2023-04-16T08:19:47.412Z,101651.63
2023-04-16T08:22:14.747Z,101651.44
2023-04-16T08:24:42.135Z,101650.28
2023-04-16T08:27:18.555Z,101645.38
2023-04-16T08:29:48.174Z,101640.72
2023-04-16T08:32:15.409Z,101658.41
2023-04-16T08:34:42.705Z,101635.22
2023-04-16T08:37:10.602Z,101637.97
2023-04-16T08:39:37.929Z,101628.34
2023-04-16T08:42:06.159Z,101639.81
2023-04-16T08:44:37.648Z,101632.34
2023-04-16T08:47:09.565Z,101627.03
2023-04-16T08:49:39.811Z,101618.53
2023-04-16T08:52:10.196Z,101613.44
2023-04-16T08:55:06.355Z,101609.72
2023-04-16T08:57:43.721Z,101623.50
2023-04-16T09:00:13.781Z,101614.91
2023-04-16T09:02:41.580Z,101617.06
2023-04-16T09:05:14.489Z,101602.47
2023-04-16T09:07:42.357Z,101622.53
2023-04-16T09:10:10.916Z,101615.22
2023-04-16T09:12:38.550Z,101608.53
2023-04-16T09:15:06.653Z,101598.47
2023-04-16T09:17:34.999Z,101616.66
2023-04-16T09:20:06.137Z,101608.13
2023-04-16T09:22:33.418Z,101587.00
2023-04-16T09:25:00.712Z,101593.69
2023-04-16T09:27:28.488Z,101597.44
2023-04-16T09:29:55.857Z,101603.97
2023-04-16T09:32:27.751Z,101589.59
2023-04-16T09:34:56.445Z,101592.03
2023-04-16T09:37:25.013Z,101587.34
2023-04-16T09:40:04.139Z,101588.03
2023-04-16T09:42:37.406Z,101600.88
2023-04-16T09:45:06.203Z,101612.81
2023-04-16T09:47:45.159Z,101599.84
2023-04-16T09:50:18.601Z,101608.69
2023-04-16T09:52:50.777Z,101610.03
2023-04-16T09:55:24.041Z,101595.31
2023-04-16T09:57:59.369Z,101608.16
2023-04-16T10:00:26.663Z,101602.47
2023-04-16T10:03:05.014Z,101591.28
2023-04-16T10:05:32.153Z,101592.47
2023-04-16T10:08:03.087Z,101579.56
2023-04-16T10:10:30.765Z,101602.25
2023-04-16T10:12:58.788Z,101593.78
2023-04-16T10:15:26.368Z,101597.72
2023-04-16T10:17:54.285Z,101584.44
2023-04-16T10:20:22.882Z,101579.59
2023-04-16T10:22:50.386Z,101588.84
2023-04-16T10:25:18.369Z,101585.75
2023-04-16T10:27:48.221Z,101596.38
2023-04-16T10:30:16.941Z,101592.09
2023-04-16T10:32:45.591Z,101589.78
2023-04-16T10:35:19.258Z,101595.97
2023-04-16T10:37:46.397Z,101581.31
2023-04-16T10:40:27.696Z,101588.41
2023-04-16T10:42:59.201Z,101603.03
2023-04-16T10:45:37.599Z,101583.56
2023-04-16T10:48:08.773Z,101583.16
2023-04-16T10:50:39.817Z,101584.94
2023-04-16T10:53:27.978Z,101562.34
2023-04-16T10:55:58.978Z,101583.94
2023-04-16T10:58:34.979Z,101581.41
2023-04-16T11:01:07.937Z,101563.16
2023-04-16T11:03:35.236Z,101581.25
2023-04-16T11:06:13.359Z,101577.91
2023-04-16T11:08:53.450Z,101573.72
2023-04-16T11:11:22.167Z,101581.69
2023-04-16T11:13:50.103Z,101578.34
2023-04-16T11:16:17.629Z,101567.38
2023-04-16T11:18:51.338Z,101569.84
2023-04-16T11:21:20.817Z,101572.75
2023-04-16T11:23:53.640Z,101557.00
2023-04-16T11:26:28.939Z,101559.59
2023-04-16T11:28:57.391Z,101532.41
2023-04-16T11:31:24.906Z,101547.34
2023-04-16T11:33:52.552Z,101550.63
2023-04-16T11:36:19.907Z,101548.22
2023-04-16T11:38:47.362Z,101525.63
2023-04-16T11:41:20.445Z,101530.69
2023-04-16T11:43:47.792Z,101509.44
2023-04-16T11:46:26.803Z,101512.75
2023-04-16T11:49:07.303Z,101531.44
2023-04-16T11:51:40.225Z,101535.09
2023-04-16T11:54:11.127Z,101524.09
2023-04-16T11:56:45.229Z,101530.91
2023-04-16T11:59:14.555Z,101533.56
2023-04-16T12:01:45.816Z,101519.44
2023-04-16T12:04:14.550Z,101526.81
2023-04-16T12:07:03.256Z,101500.94
2023-04-16T12:09:30.583Z,101500.78
2023-04-16T12:11:57.990Z,101498.50
2023-04-16T12:14:25.157Z,101493.88
2023-04-16T12:16:52.343Z,101485.75
2023-04-16T12:19:19.685Z,101485.16
2023-04-16T12:21:48.716Z,101493.84
2023-04-16T12:24:20.778Z,101487.63
2023-04-16T12:26:52.177Z,101490.03
2023-04-16T12:29:21.377Z,101487.47
2023-04-16T12:31:50.763Z,101490.81
2023-04-16T12:34:19.221Z,101489.78
2023-04-16T12:36:48.044Z,101487.72
2023-04-16T12:39:16.341Z,101495.44
2023-04-16T12:41:44.527Z,101493.69
2023-04-16T12:44:18.048Z,101485.81
2023-04-16T12:46:45.426Z,101482.59
2023-04-16T12:49:13.055Z,101488.75
2023-04-16T12:51:40.898Z,101490.69
2023-04-16T12:54:08.224Z,101482.22
2023-04-16T12:56:36.379Z,101471.03
2023-04-16T12:59:03.670Z,101479.31
2023-04-16T13:01:31.152Z,101480.53
2023-04-16T13:03:58.877Z,101486.00
2023-04-16T13:06:26.447Z,101474.41
2023-04-16T13:08:54.489Z,101488.63
2023-04-16T13:11:21.701Z,101477.53
2023-04-16T13:13:48.724Z,101477.22
2023-04-16T13:16:16.469Z,101467.94
2023-04-16T13:18:44.103Z,101506.38
2023-04-16T13:21:11.394Z,101458.88
2023-04-16T13:23:38.480Z,101454.28
2023-04-16T13:26:05.985Z,101457.59
2023-04-16T13:28:33.303Z,101457.44
2023-04-16T13:31:02.181Z,101441.50
2023-04-16T13:33:30.907Z,101458.00
2023-04-16T13:35:58.264Z,101444.94
2023-04-16T13:38:25.625Z,101441.19
2023-04-16T13:40:52.780Z,101442.13
2023-04-16T13:43:19.886Z,101426.09
2023-04-16T13:45:47.277Z,101443.69
2023-04-16T13:48:14.708Z,101435.88
2023-04-16T13:50:41.907Z,101432.56
2023-04-16T13:53:09.112Z,101435.63
2023-04-16T13:55:36.219Z,101439.25
2023-04-16T13:58:03.808Z,101443.63
2023-04-16T14:00:31.192Z,101415.59
2023-04-16T14:02:58.515Z,101433.09
2023-04-16T14:05:27.274Z,101433.81
2023-04-16T14:07:54.491Z,101434.13
2023-04-16T14:10:21.743Z,101430.81
2023-04-16T14:12:49.140Z,101445.81
2023-04-16T14:15:16.496Z,101434.34
2023-04-16T14:17:47.117Z,101455.91
2023-04-16T14:20:14.767Z,101451.97
2023-04-16T14:22:44.023Z,101437.06
2023-04-16T14:25:11.203Z,101459.66
2023-04-16T14:27:38.712Z,101469.22
2023-04-16T14:30:07.084Z,101446.00
2023-04-16T14:32:34.535Z,101447.47
2023-04-16T14:35:01.703Z,101449.31
2023-04-16T14:37:32.150Z,101436.31
2023-04-16T14:40:00.969Z,101430.03
2023-04-16T14:42:28.527Z,101429.50
2023-04-16T14:44:55.707Z,101445.72
2023-04-16T14:47:24.169Z,101445.22
2023-04-16T14:49:51.275Z,101444.28
2023-04-16T14:52:18.534Z,101450.63
2023-04-16T14:54:45.711Z,101436.44
2023-04-16T14:57:13.008Z,101445.75
2023-04-16T14:59:40.370Z,101446.91
2023-04-16T15:02:08.741Z,101435.44
2023-04-16T15:04:36.002Z,101431.19
2023-04-16T15:07:03.186Z,101434.84
2023-04-16T15:09:30.564Z,101452.03
2023-04-16T15:11:58.216Z,101455.13
2023-04-16T15:14:25.724Z,101444.16
2023-04-16T15:16:53.377Z,101456.91
2023-04-16T15:19:20.930Z,101448.38
2023-04-16T15:21:48.910Z,101448.59
2023-04-16T15:24:16.159Z,101447.03
2023-04-16T15:26:43.321Z,101447.81
2023-04-16T15:29:11.052Z,101438.78
2023-04-16T15:31:38.430Z,101446.69
2023-04-16T15:34:05.771Z,101447.22
2023-04-16T15:36:33.333Z,101456.16
2023-04-16T15:39:00.678Z,101429.69
2023-04-16T15:41:31.966Z,101450.63
2023-04-16T15:43:59.212Z,101455.78
2023-04-16T15:46:26.603Z,101438.47
2023-04-16T15:48:53.797Z,101444.25
2023-04-16T15:51:21.042Z,101453.44
2023-04-16T15:53:49.717Z,101455.50
2023-04-16T15:56:17.168Z,101462.06
2023-04-16T15:58:44.233Z,101458.72
2023-04-16T16:01:13.485Z,101461.88
2023-04-16T16:03:41.117Z,101464.66
2023-04-16T16:06:09.110Z,101468.38
2023-04-16T16:08:37.872Z,101454.78
2023-04-16T16:11:05.310Z,101467.06
2023-04-16T16:13:32.614Z,101468.44
2023-04-16T16:15:59.720Z,101474.94
2023-04-16T16:18:26.903Z,101479.44
2023-04-16T16:20:57.411Z,101461.50
2023-04-16T16:23:25.322Z,101483.09
2023-04-16T16:25:52.710Z,101482.22
2023-04-16T16:28:20.638Z,101471.53
2023-04-16T16:30:48.062Z,101464.13
2023-04-16T16:33:15.161Z,101462.47
2023-04-16T16:35:42.460Z,101487.16
2023-04-16T16:38:09.725Z,101461.59
2023-04-16T16:40:39.839Z,101478.09
2023-04-16T16:43:06.994Z,101472.06
2023-04-16T16:45:34.260Z,101480.47
2023-04-16T16:48:03.602Z,101486.91
2023-04-16T16:50:33.969Z,101485.56
2023-04-16T16:53:01.490Z,101478.59
2023-04-16T16:55:28.722Z,101487.88
2023-04-16T16:57:57.322Z,101477.84
2023-04-16T17:00:24.796Z,101486.25
2023-04-16T17:02:52.889Z,101487.09
2023-04-16T17:05:20.470Z,101497.50
2023-04-16T17:07:48.227Z,101486.91
2023-04-16T17:10:20.260Z,101488.00
2023-04-16T17:12:49.751Z,101494.72
2023-04-16T17:15:20.557Z,101503.97
2023-04-16T17:17:49.125Z,101497.59
2023-04-16T17:20:16.462Z,101500.66
2023-04-16T17:22:43.788Z,101501.78
2023-04-16T17:25:11.387Z,101494.78
2023-04-16T17:27:41.594Z,101479.69
2023-04-16T17:30:09.627Z,101495.06
2023-04-16T17:32:37.092Z,101497.03
2023-04-16T17:35:04.571Z,101484.19
2023-04-16T17:37:33.245Z,101481.66
2023-04-16T17:40:00.628Z,101488.31
2023-04-16T17:42:27.938Z,101471.88
2023-04-16T17:44:55.072Z,101495.00
2023-04-16T17:47:22.220Z,101470.13
2023-04-16T17:49:52.724Z,101505.06
2023-04-16T17:52:21.498Z,101500.91
2023-04-16T17:54:49.324Z,101494.78
2023-04-16T17:57:16.579Z,101496.19
2023-04-16T17:59:43.703Z,101483.81
2023-04-16T18:02:11.248Z,101494.78
2023-04-16T18:04:38.597Z,101494.78
2023-04-16T18:07:06.573Z,101482.44
2023-04-16T18:09:34.012Z,101491.91
2023-04-16T18:12:01.633Z,101482.91
2023-04-16T18:14:29.238Z,101491.31
2023-04-16T18:16:58.511Z,101501.66
2023-04-16T18:19:25.622Z,101497.47
2023-04-16T18:21:52.958Z,101493.63
2023-04-16T18:24:21.740Z,101501.44
2023-04-16T18:26:49.259Z,101497.31
2023-04-16T18:29:17.981Z,101473.59
2023-04-16T18:31:45.489Z,101492.56
2023-04-16T18:34:12.849Z,101495.41
2023-04-16T18:36:39.986Z,101496.50
2023-04-16T18:39:08.412Z,101488.41
2023-04-16T18:41:36.179Z,101491.72
2023-04-16T18:44:03.879Z,101494.00
2023-04-16T18:46:31.029Z,101481.44
2023-04-16T18:48:59.374Z,101468.03
2023-04-16T18:51:27.459Z,101469.69
2023-04-16T18:53:54.551Z,101487.81
2023-04-16T18:56:21.823Z,101479.13
2023-04-16T18:58:49.540Z,101473.59
2023-04-16T19:01:18.044Z,101484.75
2023-04-16T19:03:45.644Z,101483.06
2023-04-16T19:06:12.874Z,101473.59
2023-04-16T19:08:41.950Z,101486.41
2023-04-16T19:11:08.993Z,101473.03
2023-04-16T19:13:36.635Z,101478.03
2023-04-16T19:16:06.202Z,101484.19
2023-04-16T19:18:33.500Z,101484.50
2023-04-16T19:21:01.261Z,101475.88
2023-04-16T19:23:29.128Z,101478.38
2023-04-16T19:25:57.082Z,101504.06
2023-04-16T19:28:25.660Z,101482.31
2023-04-16T19:30:53.700Z,101484.22
2023-04-16T19:33:21.114Z,101476.41
2023-04-16T19:35:48.458Z,101460.78
2023-04-16T19:38:15.703Z,101484.22
2023-04-16T19:40:46.905Z,101471.94
2023-04-16T19:43:14.417Z,101484.78
2023-04-16T19:45:46.580Z,101474.41
2023-04-16T19:48:14.643Z,101470.75
2023-04-16T19:50:42.835Z,101480.50
2023-04-16T19:53:12.507Z,101478.59
2023-04-16T19:55:40.949Z,101477.50
2023-04-16T19:58:09.030Z,101475.56
2023-04-16T20:00:38.343Z,101453.78
2023-04-16T20:03:06.036Z,101460.22
2023-04-16T20:05:33.511Z,101473.06
2023-04-16T20:08:01.037Z,101470.78
2023-04-16T20:10:28.202Z,101465.22
2023-04-16T20:12:55.661Z,101478.00
2023-04-16T20:15:22.949Z,101463.47
2023-04-16T20:17:50.190Z,101460.13
2023-04-16T20:20:17.398Z,101471.34
2023-04-16T20:22:44.609Z,101471.06
2023-04-16T20:25:14.476Z,101454.28
2023-04-16T20:27:41.758Z,101466.59
2023-04-16T20:30:09.431Z,101482.22
2023-04-16T20:32:36.609Z,101457.38
2023-04-16T20:35:05.247Z,101461.84
2023-04-16T20:37:32.637Z,101445.13
2023-04-16T20:40:00.114Z,101452.38
2023-04-16T20:42:27.756Z,101445.16
2023-04-16T20:44:56.718Z,101439.28
2023-04-16T20:47:24.215Z,101447.94
2023-04-16T20:49:53.009Z,101451.59
2023-04-16T20:52:21.566Z,101464.16
2023-04-16T20:54:52.177Z,101447.41
2023-04-16T20:57:19.508Z,101456.03
2023-04-16T20:59:46.782Z,101424.22
2023-04-16T21:02:14.284Z,101447.38
2023-04-16T21:04:41.709Z,101433.09
2023-04-16T21:07:09.106Z,101440.63
2023-04-16T21:09:36.410Z,101427.50
2023-04-16T21:12:03.602Z,101418.63
2023-04-16T21:14:31.287Z,101423.88
2023-04-16T21:16:58.458Z,101412.75
2023-04-16T21:19:25.570Z,101424.50
2023-04-16T21:21:52.740Z,101408.25
2023-04-16T21:24:19.851Z,101419.13
2023-04-16T21:26:46.991Z,101405.22
2023-04-16T21:29:14.109Z,101413.84
2023-04-16T21:31:41.422Z,101403.53
2023-04-16T21:34:08.575Z,101393.50
2023-04-16T21:36:35.705Z,101403.88
2023-04-16T21:39:02.889Z,101382.66
2023-04-16T21:41:32.664Z,101393.53
2023-04-16T21:44:00.175Z,101376.22
2023-04-16T21:46:27.915Z,101390.75
2023-04-16T21:48:55.138Z,101363.38
2023-04-16T21:51:29.038Z,101383.75
2023-04-16T21:53:59.108Z,101391.56
2023-04-16T21:56:26.534Z,101367.28
2023-04-16T21:58:53.750Z,101384.03
2023-04-16T22:01:21.865Z,101361.44
2023-04-16T22:03:52.220Z,101386.28
2023-04-16T22:06:20.682Z,101377.63
2023-04-16T22:08:50.015Z,101357.53
2023-04-16T22:11:17.562Z,101375.63
2023-04-16T22:13:46.462Z,101361.16
2023-04-16T22:16:13.887Z,101366.16
2023-04-16T22:18:42.113Z,101366.44
2023-04-16T22:21:09.763Z,101354.75
2023-04-16T22:23:37.600Z,101365.91
2023-04-16T22:26:05.015Z,101369.78
2023-04-16T22:28:32.453Z,101367.28
2023-04-16T22:30:59.499Z,101357.78
2023-04-16T22:33:30.442Z,101354.13
2023-04-16T22:36:00.196Z,101343.50
2023-04-16T22:38:27.397Z,101357.44
2023-04-16T22:40:54.704Z,101362.44
2023-04-16T22:43:21.888Z,101354.34
2023-04-16T22:45:49.105Z,101354.63
2023-04-16T22:48:16.631Z,101355.72
2023-04-16T22:50:51.204Z,101341.78
2023-04-16T22:53:18.712Z,101351.56
2023-04-16T22:55:45.932Z,101351.31
2023-04-16T22:58:13.181Z,101342.94
2023-04-16T23:00:40.506Z,101330.66
2023-04-16T23:03:10.253Z,101352.41
2023-04-16T23:05:37.722Z,101341.78
2023-04-16T23:08:04.943Z,101331.75
2023-04-16T23:10:32.242Z,101342.88
2023-04-16T23:12:59.463Z,101342.78
2023-04-16T23:15:26.725Z,101349.22
2023-04-16T23:17:54.020Z,101338.03
2023-04-16T23:20:21.250Z,101349.19
2023-04-16T23:22:48.306Z,101329.88
2023-04-16T23:25:15.670Z,101347.22
2023-04-16T23:27:42.821Z,101335.44
2023-04-16T23:30:10.666Z,101340.41
2023-04-16T23:32:38.218Z,101344.31
2023-04-16T23:35:05.908Z,101345.72
2023-04-16T23:37:33.174Z,101339.75
2023-04-16T23:40:00.193Z,101326.41
2023-04-16T23:42:27.539Z,101334.22
2023-04-16T23:44:54.602Z,101343.09
2023-04-16T23:47:21.624Z,101339.91
2023-04-16T23:49:48.751Z,101337.81
2023-04-16T23:52:15.864Z,101351.19
2023-04-16T23:54:43.258Z,101353.09
2023-04-16T23:57:10.572Z,101336.84
2023-04-16T23:59:37.661Z,101336.69
